CDT,Max TemperatureF,Mean TemperatureF,Min TemperatureF,Max Dew PointF,MeanDew PointF,Min DewpointF,Max Humidity, Mean Humidity, Min Humidity, Max Sea Level PressureIn, Mean Sea Level PressureIn, Min Sea Level PressureIn, Max VisibilityMiles, Mean VisibilityMiles, Min VisibilityMiles, Max Wind SpeedMPH, Mean Wind SpeedMPH, Max Gust SpeedMPH,PrecipitationIn, CloudCover, Events, WindDirDegrees
2011-10-1,78,67,56,48,45,41,72,50,28,30.11,30.04,29.97,10,10,10,20,10,24,0.00,0,,359
2011-10-2,74,63,51,46,44,43,77,56,35,30.18,30.13,30.09,10,10,10,15,7,20,0.00,0,,2
2011-10-3,77,66,55,46,43,38,66,46,25,30.23,30.17,30.13,10,10,10,12,6,20,0.00,0,,16
2011-10-4,83,70,56,53,46,42,67,47,26,30.25,30.18,30.12,10,10,10,9,5,21,0.00,0,,17
2011-10-5,81,70,58,63,54,49,84,62,39,30.20,30.14,30.10,10,10,10,15,6,21,0.00,0,,86
2011-10-6,82,71,60,64,59,56,90,68,45,30.20,30.15,30.11,10,10,10,13,6,24,0.00,0,,69
2011-10-7,84,74,64,63,59,55,87,65,42,30.24,30.18,30.14,10,10,10,12,7,18,0.00,0,,59
2011-10-8,85,76,67,67,63,60,90,69,48,30.22,30.16,30.11,10,10,5,17,8,25,0.13,2,Rain,72
2011-10-9,81,74,67,64,61,57,78,68,58,30.11,30.05,29.99,10,10,10,16,9,24,0.00,3,,43
2011-10-10,79,73,66,66,64,61,93,79,64,29.99,29.90,29.82,10,9,3,20,10,76,0.06,6,Rain,11
2011-10-11,75,70,65,67,65,64,100,90,79,29.88,29.83,29.79,10,9,2,12,7,15,0.01,8,Rain,357
2011-10-12,76,70,64,67,65,63,100,82,64,29.87,29.84,29.79,10,10,5,10,4,13,0.00,7,,344
2011-10-13,83,74,64,70,63,53,100,71,42,29.86,29.78,29.70,10,10,9,20,9,25,0.05,2,,278
2011-10-14,83,70,56,59,54,44,93,60,26,30.02,29.94,29.86,10,10,10,13,4,17,0.00,0,,327
2011-10-15,88,73,57,63,55,45,93,58,22,30.12,30.07,30.03,10,10,10,9,4,13,0.00,0,,3
2011-10-16,87,72,57,62,56,51,100,65,29,30.15,30.08,30.02,10,10,10,12,4,16,0.00,0,,50
2011-10-17,84,72,59,68,60,55,100,72,43,30.02,29.94,29.83,10,10,7,12,5,16,0.00,0,,114
2011-10-18,84,72,59,73,70,59,100,85,69,29.81,29.66,29.58,10,10,8,29,7,36,T,4,,117
2011-10-19,66,57,48,55,41,35,77,56,34,30.01,29.77,29.61,10,10,10,28,16,45,T,3,,315
2011-10-20,67,56,44,37,35,29,71,49,26,30.14,30.06,30.01,10,10,10,17,8,24,0.00,0,,307
2011-10-21,72,57,42,39,35,29,82,52,22,30.24,30.17,30.12,10,10,10,15,5,18,0.00,0,,344
2011-10-22,72,58,43,44,39,35,71,50,29,30.20,30.12,30.07,10,10,10,13,5,18,0.00,0,,13
2011-10-23,75,60,44,51,44,39,86,58,29,30.12,30.08,30.05,10,10,10,10,4,22,0.00,0,,38
2011-10-24,80,68,55,59,55,50,78,62,45,30.19,30.14,30.09,10,10,10,13,5,29,0.00,3,,330
2011-10-25,78,67,55,56,52,49,87,62,37,30.25,30.18,30.13,10,10,10,15,5,18,0.00,0,,92
2011-10-26,78,66,53,63,57,52,100,74,47,30.13,30.05,29.98,10,10,9,12,3,16,0.00,1,,105
2011-10-27,80,71,61,64,60,57,100,74,48,29.98,29.93,29.89,10,10,8,14,5,17,0.00,2,,315
2011-10-28,80,67,54,62,58,48,100,74,48,30.01,29.94,29.88,10,10,6,23,8,31,T,4,,342
2011-10-29,68,58,48,50,38,28,83,54,24,30.15,30.05,30.00,10,10,10,25,13,32,0.00,3,Rain,2
2011-10-30,67,57,46,45,38,33,65,51,36,30.23,30.18,30.15,10,10,10,14,6,21,0.00,0,,58
2011-10-31,74,60,45,44,37,32,76,49,22,30.19,30.16,30.10,10,10,10,14,6,18,0.00,0,,10